sensor_id;sensor_type;location;lat;lon;timestamp;P1;durP1;ratioP1;P2;durP2;ratioP2
19965;SDS011;10144;50.874;4.762;2023-07-30T00:01:59;14.48;;;2.95;;
19965;SDS011;10144;50.874;4.762;2023-07-30T00:04:25;9.40;;;2.83;;
19965;SDS011;10144;50.874;4.762;2023-07-30T00:06:51;12.55;;;2.80;;
19965;SDS011;10144;50.874;4.762;2023-07-30T00:09:18;12.00;;;3.00;;
19965;SDS011;10144;50.874;4.762;2023-07-30T00:11:44;10.27;;;2.72;;
19965;SDS011;10144;50.874;4.762;2023-07-30T00:14:10;14.77;;;3.15;;
19965;SDS011;10144;50.874;4.762;2023-07-30T00:16:39;8.32;;;2.80;;
19965;SDS011;10144;50.874;4.762;2023-07-30T00:19:05;11.23;;;2.92;;
19965;SDS011;10144;50.874;4.762;2023-07-30T00:21:31;13.88;;;3.00;;
19965;SDS011;10144;50.874;4.762;2023-07-30T00:23:57;12.40;;;3.00;;
19965;SDS011;10144;50.874;4.762;2023-07-30T00:26:24;21.35;;;3.28;;
19965;SDS011;10144;50.874;4.762;2023-07-30T00:28:52;14.32;;;3.05;;
19965;SDS011;10144;50.874;4.762;2023-07-30T00:31:18;15.07;;;3.60;;
19965;SDS011;10144;50.874;4.762;2023-07-30T00:33:44;14.25;;;3.40;;
19965;SDS011;10144;50.874;4.762;2023-07-30T00:36:12;10.15;;;3.10;;
19965;SDS011;10144;50.874;4.762;2023-07-30T00:38:39;15.10;;;3.13;;
19965;SDS011;10144;50.874;4.762;2023-07-30T00:41:05;13.00;;;3.45;;
19965;SDS011;10144;50.874;4.762;2023-07-30T00:43:31;14.38;;;3.10;;
19965;SDS011;10144;50.874;4.762;2023-07-30T00:45:57;15.05;;;3.42;;
19965;SDS011;10144;50.874;4.762;2023-07-30T00:48:23;13.93;;;3.13;;
19965;SDS011;10144;50.874;4.762;2023-07-30T00:50:49;15.15;;;3.45;;
19965;SDS011;10144;50.874;4.762;2023-07-30T00:53:15;14.88;;;3.10;;
19965;SDS011;10144;50.874;4.762;2023-07-30T00:55:43;18.90;;;3.00;;
19965;SDS011;10144;50.874;4.762;2023-07-30T00:58:11;11.40;;;2.85;;
19965;SDS011;10144;50.874;4.762;2023-07-30T01:00:40;15.88;;;3.05;;
19965;SDS011;10144;50.874;4.762;2023-07-30T01:03:06;14.13;;;3.10;;
19965;SDS011;10144;50.874;4.762;2023-07-30T01:05:33;16.27;;;3.28;;
19965;SDS011;10144;50.874;4.762;2023-07-30T01:07:59;13.75;;;3.20;;
19965;SDS011;10144;50.874;4.762;2023-07-30T01:10:26;12.40;;;3.15;;
19965;SDS011;10144;50.874;4.762;2023-07-30T01:12:54;10.65;;;3.13;;
19965;SDS011;10144;50.874;4.762;2023-07-30T01:15:20;12.75;;;2.85;;
19965;SDS011;10144;50.874;4.762;2023-07-30T01:17:46;15.02;;;3.20;;
19965;SDS011;10144;50.874;4.762;2023-07-30T01:20:12;14.55;;;3.17;;
19965;SDS011;10144;50.874;4.762;2023-07-30T01:22:38;11.18;;;3.05;;
19965;SDS011;10144;50.874;4.762;2023-07-30T01:25:04;16.60;;;3.13;;
19965;SDS011;10144;50.874;4.762;2023-07-30T01:27:39;13.52;;;2.67;;
19965;SDS011;10144;50.874;4.762;2023-07-30T01:30:17;12.65;;;3.20;;
19965;SDS011;10144;50.874;4.762;2023-07-30T01:32:49;13.23;;;3.13;;
19965;SDS011;10144;50.874;4.762;2023-07-30T01:35:19;13.85;;;2.90;;
19965;SDS011;10144;50.874;4.762;2023-07-30T01:37:49;12.45;;;2.72;;
19965;SDS011;10144;50.874;4.762;2023-07-30T01:40:22;11.45;;;2.60;;
19965;SDS011;10144;50.874;4.762;2023-07-30T01:42:53;10.85;;;2.80;;
19965;SDS011;10144;50.874;4.762;2023-07-30T01:45:19;13.48;;;2.95;;
19965;SDS011;10144;50.874;4.762;2023-07-30T01:47:44;16.35;;;3.30;;
19965;SDS011;10144;50.874;4.762;2023-07-30T01:50:11;14.20;;;3.53;;
19965;SDS011;10144;50.874;4.762;2023-07-30T01:52:37;15.23;;;3.10;;
19965;SDS011;10144;50.874;4.762;2023-07-30T01:55:02;14.43;;;3.00;;
19965;SDS011;10144;50.874;4.762;2023-07-30T01:57:29;9.60;;;2.85;;
19965;SDS011;10144;50.874;4.762;2023-07-30T01:59:55;16.40;;;3.05;;
19965;SDS011;10144;50.874;4.762;2023-07-30T02:02:21;12.80;;;2.60;;
19965;SDS011;10144;50.874;4.762;2023-07-30T02:04:47;16.17;;;2.85;;
19965;SDS011;10144;50.874;4.762;2023-07-30T02:07:13;16.85;;;3.20;;
19965;SDS011;10144;50.874;4.762;2023-07-30T02:09:39;10.88;;;2.53;;
19965;SDS011;10144;50.874;4.762;2023-07-30T02:12:06;19.15;;;2.78;;
19965;SDS011;10144;50.874;4.762;2023-07-30T02:14:32;13.50;;;2.72;;
19965;SDS011;10144;50.874;4.762;2023-07-30T02:16:58;15.82;;;2.67;;
19965;SDS011;10144;50.874;4.762;2023-07-30T02:19:24;14.05;;;3.10;;
19965;SDS011;10144;50.874;4.762;2023-07-30T02:21:50;17.42;;;2.70;;
19965;SDS011;10144;50.874;4.762;2023-07-30T02:24:15;14.60;;;2.88;;
19965;SDS011;10144;50.874;4.762;2023-07-30T02:26:43;14.75;;;2.67;;
19965;SDS011;10144;50.874;4.762;2023-07-30T02:29:09;16.60;;;3.03;;
19965;SDS011;10144;50.874;4.762;2023-07-30T02:31:36;15.43;;;2.80;;
19965;SDS011;10144;50.874;4.762;2023-07-30T02:34:01;14.13;;;3.10;;
19965;SDS011;10144;50.874;4.762;2023-07-30T02:36:27;19.75;;;2.80;;
19965;SDS011;10144;50.874;4.762;2023-07-30T02:38:53;15.63;;;3.05;;
19965;SDS011;10144;50.874;4.762;2023-07-30T02:41:19;15.63;;;2.78;;
19965;SDS011;10144;50.874;4.762;2023-07-30T02:43:45;11.00;;;2.53;;
19965;SDS011;10144;50.874;4.762;2023-07-30T02:46:11;15.45;;;2.90;;
19965;SDS011;10144;50.874;4.762;2023-07-30T02:48:37;15.52;;;2.80;;
19965;SDS011;10144;50.874;4.762;2023-07-30T02:51:03;15.50;;;2.90;;
19965;SDS011;10144;50.874;4.762;2023-07-30T02:53:28;13.20;;;2.78;;
19965;SDS011;10144;50.874;4.762;2023-07-30T02:55:54;11.52;;;2.65;;
19965;SDS011;10144;50.874;4.762;2023-07-30T02:58:21;15.18;;;2.47;;
19965;SDS011;10144;50.874;4.762;2023-07-30T03:00:47;12.38;;;2.65;;
19965;SDS011;10144;50.874;4.762;2023-07-30T03:03:14;16.20;;;2.78;;
19965;SDS011;10144;50.874;4.762;2023-07-30T03:05:42;14.10;;;2.45;;
19965;SDS011;10144;50.874;4.762;2023-07-30T03:08:14;17.75;;;2.78;;
19965;SDS011;10144;50.874;4.762;2023-07-30T03:10:39;14.45;;;2.40;;
19965;SDS011;10144;50.874;4.762;2023-07-30T03:13:05;14.63;;;2.67;;
19965;SDS011;10144;50.874;4.762;2023-07-30T03:15:34;12.65;;;2.53;;
19965;SDS011;10144;50.874;4.762;2023-07-30T03:18:05;14.07;;;2.85;;
19965;SDS011;10144;50.874;4.762;2023-07-30T03:20:31;20.73;;;2.80;;
19965;SDS011;10144;50.874;4.762;2023-07-30T03:22:56;15.30;;;3.00;;
19965;SDS011;10144;50.874;4.762;2023-07-30T03:25:22;13.82;;;2.80;;
19965;SDS011;10144;50.874;4.762;2023-07-30T03:27:48;15.70;;;2.95;;
19965;SDS011;10144;50.874;4.762;2023-07-30T03:30:14;15.02;;;2.60;;
19965;SDS011;10144;50.874;4.762;2023-07-30T03:32:40;15.90;;;3.25;;
19965;SDS011;10144;50.874;4.762;2023-07-30T03:35:06;18.60;;;3.35;;
19965;SDS011;10144;50.874;4.762;2023-07-30T03:37:32;10.95;;;3.03;;
19965;SDS011;10144;50.874;4.762;2023-07-30T03:39:57;9.48;;;2.55;;
19965;SDS011;10144;50.874;4.762;2023-07-30T03:42:23;14.95;;;2.80;;
19965;SDS011;10144;50.874;4.762;2023-07-30T03:44:49;14.98;;;2.70;;
19965;SDS011;10144;50.874;4.762;2023-07-30T03:47:15;10.80;;;2.60;;
19965;SDS011;10144;50.874;4.762;2023-07-30T03:49:41;14.95;;;2.67;;
19965;SDS011;10144;50.874;4.762;2023-07-30T03:52:07;18.13;;;3.08;;
19965;SDS011;10144;50.874;4.762;2023-07-30T03:54:32;11.85;;;2.90;;
19965;SDS011;10144;50.874;4.762;2023-07-30T03:56:58;13.98;;;2.72;;
19965;SDS011;10144;50.874;4.762;2023-07-30T03:59:25;21.42;;;2.72;;
19965;SDS011;10144;50.874;4.762;2023-07-30T04:01:51;21.27;;;2.70;;
19965;SDS011;10144;50.874;4.762;2023-07-30T04:04:16;10.23;;;2.00;;
19965;SDS011;10144;50.874;4.762;2023-07-30T04:06:42;17.00;;;2.60;;
19965;SDS011;10144;50.874;4.762;2023-07-30T04:09:08;14.27;;;2.60;;
19965;SDS011;10144;50.874;4.762;2023-07-30T04:11:33;16.15;;;2.83;;
19965;SDS011;10144;50.874;4.762;2023-07-30T04:14:01;15.25;;;2.72;;
19965;SDS011;10144;50.874;4.762;2023-07-30T04:16:32;16.30;;;2.63;;
19965;SDS011;10144;50.874;4.762;2023-07-30T04:18:57;10.43;;;2.25;;
19965;SDS011;10144;50.874;4.762;2023-07-30T04:21:24;13.02;;;2.42;;
19965;SDS011;10144;50.874;4.762;2023-07-30T04:23:51;15.38;;;2.80;;
19965;SDS011;10144;50.874;4.762;2023-07-30T04:26:17;12.13;;;2.40;;
19965;SDS011;10144;50.874;4.762;2023-07-30T04:28:49;14.90;;;2.58;;
19965;SDS011;10144;50.874;4.762;2023-07-30T04:31:14;13.68;;;2.95;;
19965;SDS011;10144;50.874;4.762;2023-07-30T04:33:40;14.73;;;2.58;;
19965;SDS011;10144;50.874;4.762;2023-07-30T04:36:06;17.23;;;2.75;;
19965;SDS011;10144;50.874;4.762;2023-07-30T04:38:33;17.63;;;2.90;;
19965;SDS011;10144;50.874;4.762;2023-07-30T04:40:59;14.57;;;2.72;;
19965;SDS011;10144;50.874;4.762;2023-07-30T04:43:25;22.02;;;2.53;;
19965;SDS011;10144;50.874;4.762;2023-07-30T04:45:51;17.55;;;3.45;;
19965;SDS011;10144;50.874;4.762;2023-07-30T04:48:16;19.10;;;2.95;;
19965;SDS011;10144;50.874;4.762;2023-07-30T04:50:42;18.88;;;2.90;;
19965;SDS011;10144;50.874;4.762;2023-07-30T04:53:08;15.15;;;2.92;;
19965;SDS011;10144;50.874;4.762;2023-07-30T04:55:34;10.52;;;2.50;;
19965;SDS011;10144;50.874;4.762;2023-07-30T04:58:01;15.98;;;3.03;;
19965;SDS011;10144;50.874;4.762;2023-07-30T05:00:27;22.77;;;2.85;;
19965;SDS011;10144;50.874;4.762;2023-07-30T05:02:53;18.17;;;2.80;;
19965;SDS011;10144;50.874;4.762;2023-07-30T05:05:18;16.73;;;3.00;;
19965;SDS011;10144;50.874;4.762;2023-07-30T05:07:44;17.30;;;2.80;;
19965;SDS011;10144;50.874;4.762;2023-07-30T05:10:10;17.42;;;2.60;;
19965;SDS011;10144;50.874;4.762;2023-07-30T05:12:36;14.75;;;2.50;;
19965;SDS011;10144;50.874;4.762;2023-07-30T05:15:02;19.38;;;2.97;;
19965;SDS011;10144;50.874;4.762;2023-07-30T05:17:28;18.15;;;2.70;;
19965;SDS011;10144;50.874;4.762;2023-07-30T05:19:54;15.57;;;2.80;;
19965;SDS011;10144;50.874;4.762;2023-07-30T05:22:19;15.15;;;2.80;;
19965;SDS011;10144;50.874;4.762;2023-07-30T05:24:45;16.83;;;2.45;;
19965;SDS011;10144;50.874;4.762;2023-07-30T05:27:10;13.88;;;2.50;;
19965;SDS011;10144;50.874;4.762;2023-07-30T05:29:36;15.52;;;2.70;;
19965;SDS011;10144;50.874;4.762;2023-07-30T05:32:02;11.93;;;2.80;;
19965;SDS011;10144;50.874;4.762;2023-07-30T05:34:27;15.23;;;2.53;;
19965;SDS011;10144;50.874;4.762;2023-07-30T05:36:53;14.98;;;2.63;;
19965;SDS011;10144;50.874;4.762;2023-07-30T05:39:19;22.45;;;2.55;;
19965;SDS011;10144;50.874;4.762;2023-07-30T05:41:44;17.48;;;2.67;;
19965;SDS011;10144;50.874;4.762;2023-07-30T05:44:10;15.15;;;2.50;;
19965;SDS011;10144;50.874;4.762;2023-07-30T05:46:36;15.07;;;2.55;;
19965;SDS011;10144;50.874;4.762;2023-07-30T05:49:01;12.45;;;2.97;;
19965;SDS011;10144;50.874;4.762;2023-07-30T05:51:27;20.83;;;2.30;;
19965;SDS011;10144;50.874;4.762;2023-07-30T05:53:52;19.50;;;2.58;;
19965;SDS011;10144;50.874;4.762;2023-07-30T05:56:18;18.05;;;3.08;;
19965;SDS011;10144;50.874;4.762;2023-07-30T05:58:45;14.68;;;2.40;;
19965;SDS011;10144;50.874;4.762;2023-07-30T06:01:10;18.92;;;2.67;;
19965;SDS011;10144;50.874;4.762;2023-07-30T06:03:37;21.63;;;2.88;;
19965;SDS011;10144;50.874;4.762;2023-07-30T06:06:02;20.05;;;2.92;;
19965;SDS011;10144;50.874;4.762;2023-07-30T06:08:28;19.23;;;2.92;;
19965;SDS011;10144;50.874;4.762;2023-07-30T06:10:54;17.55;;;2.60;;
19965;SDS011;10144;50.874;4.762;2023-07-30T06:13:20;17.45;;;2.63;;
19965;SDS011;10144;50.874;4.762;2023-07-30T06:15:46;20.77;;;3.15;;
19965;SDS011;10144;50.874;4.762;2023-07-30T06:18:12;22.48;;;3.10;;
19965;SDS011;10144;50.874;4.762;2023-07-30T06:20:37;15.80;;;3.20;;
19965;SDS011;10144;50.874;4.762;2023-07-30T06:23:03;28.55;;;2.78;;
19965;SDS011;10144;50.874;4.762;2023-07-30T06:25:29;24.20;;;3.03;;
19965;SDS011;10144;50.874;4.762;2023-07-30T06:27:55;12.82;;;2.53;;
19965;SDS011;10144;50.874;4.762;2023-07-30T06:30:23;17.83;;;2.70;;
19965;SDS011;10144;50.874;4.762;2023-07-30T06:32:49;24.30;;;2.90;;
19965;SDS011;10144;50.874;4.762;2023-07-30T06:35:15;20.10;;;2.75;;
19965;SDS011;10144;50.874;4.762;2023-07-30T06:37:40;22.80;;;2.83;;
19965;SDS011;10144;50.874;4.762;2023-07-30T06:40:06;19.98;;;2.53;;
19965;SDS011;10144;50.874;4.762;2023-07-30T06:42:33;29.55;;;3.22;;
19965;SDS011;10144;50.874;4.762;2023-07-30T06:44:58;23.83;;;2.80;;
19965;SDS011;10144;50.874;4.762;2023-07-30T06:47:24;19.10;;;3.00;;
19965;SDS011;10144;50.874;4.762;2023-07-30T06:49:50;18.95;;;3.40;;
19965;SDS011;10144;50.874;4.762;2023-07-30T06:52:15;14.43;;;2.38;;
19965;SDS011;10144;50.874;4.762;2023-07-30T06:54:41;22.25;;;2.90;;
19965;SDS011;10144;50.874;4.762;2023-07-30T06:57:06;18.65;;;2.97;;
19965;SDS011;10144;50.874;4.762;2023-07-30T06:59:33;19.73;;;2.75;;
19965;SDS011;10144;50.874;4.762;2023-07-30T07:01:59;19.73;;;2.83;;
19965;SDS011;10144;50.874;4.762;2023-07-30T07:04:24;23.05;;;2.72;;
19965;SDS011;10144;50.874;4.762;2023-07-30T07:06:51;18.80;;;2.85;;
19965;SDS011;10144;50.874;4.762;2023-07-30T07:09:16;15.40;;;2.80;;
19965;SDS011;10144;50.874;4.762;2023-07-30T07:11:42;17.20;;;2.50;;
19965;SDS011;10144;50.874;4.762;2023-07-30T07:14:08;18.23;;;3.35;;
19965;SDS011;10144;50.874;4.762;2023-07-30T07:16:34;25.15;;;2.78;;
19965;SDS011;10144;50.874;4.762;2023-07-30T07:18:59;15.77;;;2.55;;
19965;SDS011;10144;50.874;4.762;2023-07-30T07:21:25;14.48;;;2.40;;
19965;SDS011;10144;50.874;4.762;2023-07-30T07:23:51;15.90;;;2.78;;
19965;SDS011;10144;50.874;4.762;2023-07-30T07:26:17;13.93;;;2.70;;
19965;SDS011;10144;50.874;4.762;2023-07-30T07:28:42;22.55;;;3.13;;
19965;SDS011;10144;50.874;4.762;2023-07-30T07:31:08;17.00;;;2.28;;
19965;SDS011;10144;50.874;4.762;2023-07-30T07:33:36;14.48;;;2.80;;
19965;SDS011;10144;50.874;4.762;2023-07-30T07:36:03;20.45;;;3.17;;
19965;SDS011;10144;50.874;4.762;2023-07-30T07:38:31;15.43;;;2.65;;
19965;SDS011;10144;50.874;4.762;2023-07-30T07:40:57;21.80;;;3.10;;
19965;SDS011;10144;50.874;4.762;2023-07-30T07:43:24;13.68;;;2.65;;
19965;SDS011;10144;50.874;4.762;2023-07-30T07:45:50;15.75;;;2.75;;
19965;SDS011;10144;50.874;4.762;2023-07-30T07:48:16;22.13;;;3.13;;
19965;SDS011;10144;50.874;4.762;2023-07-30T07:50:42;17.98;;;2.60;;
19965;SDS011;10144;50.874;4.762;2023-07-30T07:53:07;18.02;;;2.30;;
19965;SDS011;10144;50.874;4.762;2023-07-30T07:55:33;16.92;;;2.92;;
19965;SDS011;10144;50.874;4.762;2023-07-30T07:57:59;16.00;;;2.60;;
19965;SDS011;10144;50.874;4.762;2023-07-30T08:00:24;14.73;;;2.25;;
19965;SDS011;10144;50.874;4.762;2023-07-30T08:02:50;15.02;;;2.63;;
19965;SDS011;10144;50.874;4.762;2023-07-30T08:05:16;19.38;;;2.67;;
19965;SDS011;10144;50.874;4.762;2023-07-30T08:07:42;10.20;;;2.05;;
19965;SDS011;10144;50.874;4.762;2023-07-30T08:10:11;11.48;;;2.50;;
19965;SDS011;10144;50.874;4.762;2023-07-30T08:12:36;10.68;;;2.08;;
19965;SDS011;10144;50.874;4.762;2023-07-30T08:15:02;10.73;;;2.05;;
19965;SDS011;10144;50.874;4.762;2023-07-30T08:17:28;13.25;;;2.55;;
19965;SDS011;10144;50.874;4.762;2023-07-30T08:19:54;15.13;;;2.20;;
19965;SDS011;10144;50.874;4.762;2023-07-30T08:22:20;11.07;;;1.70;;
19965;SDS011;10144;50.874;4.762;2023-07-30T08:24:45;14.65;;;2.70;;
19965;SDS011;10144;50.874;4.762;2023-07-30T08:27:11;11.50;;;2.00;;
19965;SDS011;10144;50.874;4.762;2023-07-30T08:29:36;11.82;;;1.88;;
19965;SDS011;10144;50.874;4.762;2023-07-30T08:32:02;15.13;;;2.47;;
19965;SDS011;10144;50.874;4.762;2023-07-30T08:34:28;11.07;;;2.38;;
19965;SDS011;10144;50.874;4.762;2023-07-30T08:36:53;10.75;;;1.92;;
19965;SDS011;10144;50.874;4.762;2023-07-30T08:39:19;11.45;;;2.25;;
19965;SDS011;10144;50.874;4.762;2023-07-30T08:41:45;9.65;;;1.70;;
19965;SDS011;10144;50.874;4.762;2023-07-30T08:44:11;10.60;;;1.92;;
19965;SDS011;10144;50.874;4.762;2023-07-30T08:46:37;9.23;;;1.83;;
19965;SDS011;10144;50.874;4.762;2023-07-30T08:49:03;7.90;;;1.88;;
19965;SDS011;10144;50.874;4.762;2023-07-30T08:51:29;12.43;;;1.80;;
19965;SDS011;10144;50.874;4.762;2023-07-30T08:53:57;12.95;;;1.83;;
19965;SDS011;10144;50.874;4.762;2023-07-30T08:56:23;8.15;;;1.70;;
19965;SDS011;10144;50.874;4.762;2023-07-30T08:58:49;16.50;;;2.45;;
19965;SDS011;10144;50.874;4.762;2023-07-30T09:01:16;12.68;;;1.73;;
19965;SDS011;10144;50.874;4.762;2023-07-30T09:03:44;14.48;;;2.30;;
19965;SDS011;10144;50.874;4.762;2023-07-30T09:06:10;15.30;;;2.00;;
19965;SDS011;10144;50.874;4.762;2023-07-30T09:08:36;10.07;;;1.95;;
19965;SDS011;10144;50.874;4.762;2023-07-30T09:11:08;15.52;;;2.13;;
19965;SDS011;10144;50.874;4.762;2023-07-30T09:13:39;10.05;;;2.10;;
19965;SDS011;10144;50.874;4.762;2023-07-30T09:16:12;11.25;;;1.83;;
19965;SDS011;10144;50.874;4.762;2023-07-30T09:18:39;13.48;;;1.77;;
19965;SDS011;10144;50.874;4.762;2023-07-30T09:21:12;13.00;;;2.17;;
19965;SDS011;10144;50.874;4.762;2023-07-30T09:23:42;14.55;;;1.98;;
19965;SDS011;10144;50.874;4.762;2023-07-30T09:26:09;17.55;;;2.15;;
19965;SDS011;10144;50.874;4.762;2023-07-30T09:28:35;12.95;;;2.13;;
19965;SDS011;10144;50.874;4.762;2023-07-30T09:31:04;12.75;;;2.20;;
19965;SDS011;10144;50.874;4.762;2023-07-30T09:33:31;8.43;;;1.98;;
19965;SDS011;10144;50.874;4.762;2023-07-30T09:35:58;11.93;;;2.13;;
19965;SDS011;10144;50.874;4.762;2023-07-30T09:38:26;14.20;;;2.00;;
19965;SDS011;10144;50.874;4.762;2023-07-30T09:40:58;7.95;;;1.70;;
19965;SDS011;10144;50.874;4.762;2023-07-30T09:43:32;6.95;;;1.63;;
19965;SDS011;10144;50.874;4.762;2023-07-30T09:46:05;12.80;;;2.38;;
19965;SDS011;10144;50.874;4.762;2023-07-30T09:48:31;15.05;;;2.33;;
19965;SDS011;10144;50.874;4.762;2023-07-30T09:51:02;8.02;;;2.25;;
19965;SDS011;10144;50.874;4.762;2023-07-30T09:53:32;10.85;;;2.05;;
19965;SDS011;10144;50.874;4.762;2023-07-30T09:56:01;12.82;;;2.08;;
19965;SDS011;10144;50.874;4.762;2023-07-30T09:58:28;11.13;;;2.45;;
19965;SDS011;10144;50.874;4.762;2023-07-30T10:00:54;12.30;;;2.10;;
19965;SDS011;10144;50.874;4.762;2023-07-30T10:03:24;12.15;;;2.25;;
19965;SDS011;10144;50.874;4.762;2023-07-30T10:05:50;12.27;;;2.30;;
19965;SDS011;10144;50.874;4.762;2023-07-30T10:08:21;10.93;;;2.10;;
19965;SDS011;10144;50.874;4.762;2023-07-30T10:10:49;9.43;;;2.13;;
19965;SDS011;10144;50.874;4.762;2023-07-30T10:13:17;10.82;;;2.10;;
19965;SDS011;10144;50.874;4.762;2023-07-30T10:15:45;7.65;;;2.00;;
19965;SDS011;10144;50.874;4.762;2023-07-30T10:18:11;13.70;;;2.63;;
19965;SDS011;10144;50.874;4.762;2023-07-30T10:20:37;11.55;;;1.90;;
19965;SDS011;10144;50.874;4.762;2023-07-30T10:23:04;14.32;;;1.80;;
19965;SDS011;10144;50.874;4.762;2023-07-30T10:25:41;12.48;;;2.33;;
19965;SDS011;10144;50.874;4.762;2023-07-30T10:28:27;9.68;;;2.30;;
19965;SDS011;10144;50.874;4.762;2023-07-30T10:30:59;10.70;;;2.10;;
19965;SDS011;10144;50.874;4.762;2023-07-30T10:36:18;10.20;;;2.28;;
19965;SDS011;10144;50.874;4.762;2023-07-30T10:38:56;12.23;;;2.38;;
19965;SDS011;10144;50.874;4.762;2023-07-30T10:41:22;15.05;;;1.98;;
19965;SDS011;10144;50.874;4.762;2023-07-30T10:43:51;14.75;;;2.35;;
19965;SDS011;10144;50.874;4.762;2023-07-30T10:46:18;13.60;;;2.15;;
19965;SDS011;10144;50.874;4.762;2023-07-30T10:48:45;15.77;;;2.28;;
19965;SDS011;10144;50.874;4.762;2023-07-30T10:51:13;9.40;;;2.00;;
19965;SDS011;10144;50.874;4.762;2023-07-30T10:53:43;16.90;;;2.30;;
19965;SDS011;10144;50.874;4.762;2023-07-30T10:56:10;11.02;;;1.95;;
19965;SDS011;10144;50.874;4.762;2023-07-30T10:58:37;15.20;;;2.00;;
19965;SDS011;10144;50.874;4.762;2023-07-30T11:01:06;10.05;;;1.80;;
19965;SDS011;10144;50.874;4.762;2023-07-30T11:03:33;10.02;;;1.63;;
19965;SDS011;10144;50.874;4.762;2023-07-30T11:06:00;9.77;;;1.40;;
19965;SDS011;10144;50.874;4.762;2023-07-30T11:08:36;11.88;;;1.98;;
19965;SDS011;10144;50.874;4.762;2023-07-30T11:11:04;9.85;;;1.55;;
19965;SDS011;10144;50.874;4.762;2023-07-30T11:16:07;6.72;;;1.50;;
19965;SDS011;10144;50.874;4.762;2023-07-30T11:18:34;14.35;;;1.70;;
19965;SDS011;10144;50.874;4.762;2023-07-30T11:23:34;10.65;;;1.70;;
19965;SDS011;10144;50.874;4.762;2023-07-30T11:26:01;9.88;;;1.67;;
19965;SDS011;10144;50.874;4.762;2023-07-30T11:28:35;10.27;;;1.73;;
19965;SDS011;10144;50.874;4.762;2023-07-30T11:31:02;12.75;;;1.70;;
19965;SDS011;10144;50.874;4.762;2023-07-30T11:33:55;8.32;;;1.63;;
19965;SDS011;10144;50.874;4.762;2023-07-30T11:36:22;12.25;;;2.17;;
19965;SDS011;10144;50.874;4.762;2023-07-30T11:38:49;8.90;;;1.50;;
19965;SDS011;10144;50.874;4.762;2023-07-30T11:41:18;8.88;;;2.00;;
19965;SDS011;10144;50.874;4.762;2023-07-30T11:43:44;12.30;;;2.33;;
19965;SDS011;10144;50.874;4.762;2023-07-30T11:46:14;13.73;;;1.80;;
19965;SDS011;10144;50.874;4.762;2023-07-30T11:48:42;5.63;;;1.40;;
19965;SDS011;10144;50.874;4.762;2023-07-30T11:51:25;8.52;;;1.60;;
19965;SDS011;10144;50.874;4.762;2023-07-30T11:53:56;11.45;;;1.67;;
19965;SDS011;10144;50.874;4.762;2023-07-30T11:56:27;6.22;;;1.10;;
19965;SDS011;10144;50.874;4.762;2023-07-30T11:59:01;10.02;;;1.50;;
19965;SDS011;10144;50.874;4.762;2023-07-30T12:01:32;6.80;;;1.50;;
19965;SDS011;10144;50.874;4.762;2023-07-30T12:04:00;6.45;;;1.50;;
19965;SDS011;10144;50.874;4.762;2023-07-30T12:09:23;8.18;;;1.55;;
19965;SDS011;10144;50.874;4.762;2023-07-30T12:11:53;8.27;;;1.48;;
19965;SDS011;10144;50.874;4.762;2023-07-30T12:14:20;5.90;;;1.20;;
19965;SDS011;10144;50.874;4.762;2023-07-30T12:16:47;7.53;;;1.77;;
19965;SDS011;10144;50.874;4.762;2023-07-30T12:19:13;6.53;;;1.23;;
19965;SDS011;10144;50.874;4.762;2023-07-30T12:21:40;6.22;;;1.48;;
19965;SDS011;10144;50.874;4.762;2023-07-30T12:24:06;4.60;;;1.20;;
19965;SDS011;10144;50.874;4.762;2023-07-30T12:26:31;6.50;;;1.27;;
19965;SDS011;10144;50.874;4.762;2023-07-30T12:28:57;6.57;;;1.40;;
19965;SDS011;10144;50.874;4.762;2023-07-30T12:31:22;6.97;;;1.42;;
19965;SDS011;10144;50.874;4.762;2023-07-30T12:33:48;5.20;;;1.17;;
19965;SDS011;10144;50.874;4.762;2023-07-30T12:36:14;9.52;;;1.40;;
19965;SDS011;10144;50.874;4.762;2023-07-30T12:38:39;7.57;;;1.27;;
19965;SDS011;10144;50.874;4.762;2023-07-30T12:41:05;6.90;;;1.42;;
19965;SDS011;10144;50.874;4.762;2023-07-30T12:43:31;4.55;;;1.15;;
19965;SDS011;10144;50.874;4.762;2023-07-30T12:45:56;6.90;;;1.50;;
19965;SDS011;10144;50.874;4.762;2023-07-30T12:48:22;5.90;;;1.40;;
19965;SDS011;10144;50.874;4.762;2023-07-30T12:50:47;6.45;;;1.13;;
19965;SDS011;10144;50.874;4.762;2023-07-30T12:53:13;7.35;;;1.48;;
19965;SDS011;10144;50.874;4.762;2023-07-30T12:55:39;7.47;;;1.55;;
19965;SDS011;10144;50.874;4.762;2023-07-30T12:58:04;7.13;;;1.60;;
19965;SDS011;10144;50.874;4.762;2023-07-30T13:00:31;5.97;;;1.23;;
19965;SDS011;10144;50.874;4.762;2023-07-30T13:02:57;9.20;;;1.88;;
19965;SDS011;10144;50.874;4.762;2023-07-30T13:05:23;9.93;;;1.55;;
19965;SDS011;10144;50.874;4.762;2023-07-30T13:07:49;8.35;;;1.67;;
19965;SDS011;10144;50.874;4.762;2023-07-30T13:10:14;7.00;;;2.13;;
19965;SDS011;10144;50.874;4.762;2023-07-30T13:12:40;7.88;;;1.67;;
19965;SDS011;10144;50.874;4.762;2023-07-30T13:15:06;9.85;;;1.42;;
19965;SDS011;10144;50.874;4.762;2023-07-30T13:17:32;7.45;;;1.75;;
19965;SDS011;10144;50.874;4.762;2023-07-30T13:19:58;5.88;;;1.50;;
19965;SDS011;10144;50.874;4.762;2023-07-30T13:22:24;8.07;;;1.58;;
19965;SDS011;10144;50.874;4.762;2023-07-30T13:24:50;8.02;;;1.67;;
19965;SDS011;10144;50.874;4.762;2023-07-30T13:27:16;9.00;;;1.80;;
19965;SDS011;10144;50.874;4.762;2023-07-30T13:29:42;6.45;;;1.70;;
19965;SDS011;10144;50.874;4.762;2023-07-30T13:32:08;6.05;;;1.60;;
19965;SDS011;10144;50.874;4.762;2023-07-30T13:34:34;5.18;;;1.40;;
19965;SDS011;10144;50.874;4.762;2023-07-30T13:36:59;6.50;;;1.50;;
19965;SDS011;10144;50.874;4.762;2023-07-30T13:39:25;6.28;;;1.30;;
19965;SDS011;10144;50.874;4.762;2023-07-30T13:41:50;8.43;;;1.40;;
19965;SDS011;10144;50.874;4.762;2023-07-30T13:44:16;9.77;;;1.58;;
19965;SDS011;10144;50.874;4.762;2023-07-30T13:46:42;4.72;;;1.35;;
19965;SDS011;10144;50.874;4.762;2023-07-30T13:49:07;5.70;;;1.25;;
19965;SDS011;10144;50.874;4.762;2023-07-30T13:51:33;7.68;;;1.60;;
19965;SDS011;10144;50.874;4.762;2023-07-30T13:53:59;7.70;;;1.60;;
19965;SDS011;10144;50.874;4.762;2023-07-30T13:56:25;6.45;;;1.65;;
19965;SDS011;10144;50.874;4.762;2023-07-30T13:58:51;5.88;;;1.58;;
19965;SDS011;10144;50.874;4.762;2023-07-30T14:01:17;7.57;;;1.52;;
19965;SDS011;10144;50.874;4.762;2023-07-30T14:03:44;7.28;;;1.75;;
19965;SDS011;10144;50.874;4.762;2023-07-30T14:06:09;5.53;;;1.58;;
19965;SDS011;10144;50.874;4.762;2023-07-30T14:08:35;5.82;;;1.50;;
19965;SDS011;10144;50.874;4.762;2023-07-30T14:11:01;8.52;;;2.05;;
19965;SDS011;10144;50.874;4.762;2023-07-30T14:13:27;4.97;;;1.60;;
19965;SDS011;10144;50.874;4.762;2023-07-30T14:15:52;4.72;;;1.60;;
19965;SDS011;10144;50.874;4.762;2023-07-30T14:18:18;7.38;;;2.15;;
19965;SDS011;10144;50.874;4.762;2023-07-30T14:20:43;6.32;;;1.77;;
19965;SDS011;10144;50.874;4.762;2023-07-30T14:23:09;8.05;;;1.75;;
19965;SDS011;10144;50.874;4.762;2023-07-30T14:25:36;5.88;;;1.80;;
19965;SDS011;10144;50.874;4.762;2023-07-30T14:28:02;8.60;;;1.90;;
19965;SDS011;10144;50.874;4.762;2023-07-30T14:30:28;6.55;;;2.05;;
19965;SDS011;10144;50.874;4.762;2023-07-30T14:32:53;8.05;;;1.88;;
19965;SDS011;10144;50.874;4.762;2023-07-30T14:35:19;6.72;;;1.80;;
19965;SDS011;10144;50.874;4.762;2023-07-30T14:37:45;6.88;;;1.40;;
19965;SDS011;10144;50.874;4.762;2023-07-30T14:40:11;5.90;;;1.65;;
19965;SDS011;10144;50.874;4.762;2023-07-30T14:42:36;7.00;;;1.52;;
19965;SDS011;10144;50.874;4.762;2023-07-30T14:45:02;6.05;;;1.65;;
19965;SDS011;10144;50.874;4.762;2023-07-30T14:47:28;6.35;;;1.92;;